Time;durP1;ratioP1;P1;durP2;ratioP2;P2;SDS_P1;SDS_P2;PMS_P1;PMS_P2;Temp;Humidity;BMP_temperature;BMP_pressure;BME280_temperature;BME280_humidity;BME280_pressure;Samples;Min_cycle;Max_cycle;Signal;HPM_P1;HPM_P2
2022/01/27 00:07:03;;;;;;;16.60;7.73;;;;;;;4.40;100.00;100439.94;739569;1152;114148;-74
2022/01/27 00:22:05;;;;;;;13.30;7.03;;;;;;;4.32;100.00;100432.59;739667;1155;114932;-74
2022/01/27 00:37:07;;;;;;;17.93;8.55;;;;;;;4.31;100.00;100430.92;739556;1153;114490;-74
2022/01/27 00:52:15;;;;;;;17.33;8.60;;;;;;;4.30;100.00;100415.43;739924;1155;114870;-73
2022/01/27 01:07:19;;;;;;;26.03;10.18;;;;;;;4.43;100.00;100405.97;739670;1155;114735;-75
2022/01/27 01:37:39;;;;;;;23.18;10.68;;;;;;;4.32;100.00;100421.38;739761;1155;115804;-76
2022/01/27 01:52:43;;;;;;;37.90;16.00;;;;;;;4.37;100.00;100393.38;740385;1155;114928;-75
2022/01/27 02:08:26;;;;;;;29.30;12.40;;;;;;;4.34;100.00;100354.58;739650;1155;113948;-75
2022/01/27 02:23:23;;;;;;;;;;;;;;;4.19;100.00;100351.16;739608;1153;115122;-74
2022/01/27 02:38:26;;;;;;;35.90;13.08;;;;;;;4.38;100.00;100350.89;739836;1153;100220;-74
2022/01/27 02:53:28;;;;;;;44.60;16.77;;;;;;;4.49;100.00;100329.44;739730;1153;114369;-74
2022/01/27 03:08:30;;;;;;;71.53;24.07;;;;;;;4.58;100.00;100322.81;739661;1153;115089;-74
2022/01/27 03:23:33;;;;;;;42.70;13.83;;;;;;;4.59;100.00;100322.75;739528;1153;115364;-74
2022/01/27 03:38:36;;;;;;;41.40;12.60;;;;;;;4.64;100.00;100304.26;739819;1154;115865;-74
2022/01/27 03:53:38;;;;;;;29.88;9.95;;;;;;;4.70;100.00;100290.88;740009;1153;115069;-73
2022/01/27 04:08:40;;;;;;;26.47;10.23;;;;;;;4.65;100.00;100280.77;740122;1154;114122;-75
2022/01/27 04:23:43;;;;;;;32.97;11.63;;;;;;;4.55;100.00;100264.08;739501;1155;115143;-74
2022/01/27 04:38:55;;;;;;;31.00;11.70;;;;;;;4.48;100.00;100226.45;739705;1153;115018;-74
2022/01/27 04:54:10;;;;;;;38.70;12.83;;;;;;;4.56;100.00;100205.17;739840;1153;115293;-74
2022/01/27 05:09:12;;;;;;;46.20;14.93;;;;;;;4.53;100.00;100179.38;740114;1154;115492;-86
2022/01/27 05:24:19;;;;;;;46.10;15.23;;;;;;;4.56;100.00;100177.42;743721;1155;115247;-86
2022/01/27 05:39:21;;;;;;;50.65;17.55;;;;;;;4.63;100.00;100147.52;743193;1153;114376;-87
2022/01/27 05:54:23;;;;;;;61.95;23.33;;;;;;;4.64;100.00;100153.54;746898;1153;115013;-84
2022/01/27 06:09:25;;;;;;;59.38;19.78;;;;;;;4.65;100.00;100139.63;742691;1155;115485;-85
2022/01/27 06:24:28;;;;;;;61.30;23.30;;;;;;;4.65;100.00;100152.61;743261;1153;115507;-86
2022/01/27 06:39:30;;;;;;;87.13;31.73;;;;;;;4.73;100.00;100113.95;742678;1154;114221;-84
2022/01/27 06:54:33;;;;;;;70.50;22.70;;;;;;;4.72;100.00;100073.30;742029;1154;114987;-82
2022/01/27 07:09:36;;;;;;;73.15;27.15;;;;;;;4.63;100.00;100071.31;741654;1153;113612;-84
2022/01/27 07:24:38;;;;;;;107.38;28.10;;;;;;;4.57;100.00;100037.97;747020;1153;114982;-84
2022/01/27 07:39:41;;;;;;;75.03;29.15;;;;;;;4.63;100.00;100030.59;743431;1155;116153;-85
2022/01/27 07:54:43;;;;;;;57.80;25.07;;;;;;;4.63;100.00;100004.61;741278;1153;114904;-75
2022/01/27 08:09:47;;;;;;;53.00;25.18;;;;;;;4.70;100.00;99984.23;740846;1153;114952;-75
2022/01/27 08:24:50;;;;;;;47.68;21.03;;;;;;;4.76;100.00;99969.98;740613;1154;114988;-75
2022/01/27 08:39:52;;;;;;;49.15;21.23;;;;;;;4.76;100.00;99950.00;741118;1155;114586;-76
2022/01/27 08:54:54;;;;;;;38.78;16.55;;;;;;;4.65;100.00;99936.94;740050;1153;114741;-75
2022/01/27 09:10:04;;;;;;;57.03;23.05;;;;;;;4.71;100.00;99920.94;740262;1155;115190;-74
2022/01/27 09:25:22;;;;;;;52.03;20.58;;;;;;;4.58;100.00;99896.71;741754;1155;115076;-74
2022/01/27 09:40:26;;;;;;;41.80;19.00;;;;;;;4.49;100.00;99860.05;740313;1153;114787;-75
2022/01/27 09:55:30;;;;;;;31.13;15.13;;;;;;;4.31;100.00;99820.59;740282;1153;115515;-74
2022/01/27 10:10:43;;;;;;;308.23;183.53;;;;;;;4.22;100.00;99790.06;739935;1155;114004;-74
2022/01/27 10:25:54;;;;;;;22.55;12.48;;;;;;;4.22;100.00;99748.52;740097;1153;116034;-74
2022/01/27 10:41:07;;;;;;;75.38;27.10;;;;;;;4.23;100.00;99736.38;739635;1153;115059;-74
2022/01/27 10:56:17;;;;;;;17.13;9.80;;;;;;;4.21;100.00;99692.36;739821;1155;114967;-73
2022/01/27 11:11:23;;;;;;;14.13;8.00;;;;;;;4.31;100.00;99666.55;739781;1153;114969;-72
2022/01/27 11:26:28;;;;;;;40.20;20.95;;;;;;;4.43;100.00;99664.84;740446;1153;115034;-73
2022/01/27 11:41:48;;;;;;;20.35;11.88;;;;;;;4.42;100.00;99635.45;740404;1154;115975;-72
2022/01/27 11:56:50;;;;;;;15.38;8.60;;;;;;;4.56;100.00;99605.85;740125;1153;115763;-73
2022/01/27 12:12:10;;;;;;;47.88;20.35;;;;;;;4.53;100.00;99587.06;740193;1153;115267;-72
2022/01/27 12:27:18;;;;;;;22.28;11.23;;;;;;;4.63;100.00;99551.66;740456;1155;115734;-74
2022/01/27 12:42:57;;;;;;;34.60;12.98;;;;;;;4.76;100.00;99523.81;740779;1155;114873;-75
2022/01/27 12:58:08;;;;;;;21.43;10.43;;;;;;;4.81;100.00;99490.50;740807;1153;114113;-75
2022/01/27 13:13:17;;;;;;;15.35;8.18;;;;;;;4.89;100.00;99476.11;740769;1153;114794;-74
2022/01/27 13:28:26;;;;;;;14.30;7.85;;;;;;;4.84;100.00;99445.27;741115;1154;114656;-74
2022/01/27 13:43:41;;;;;;;16.60;8.23;;;;;;;4.84;100.00;99429.67;740627;1153;114538;-77
2022/01/27 13:58:44;;;;;;;14.27;7.53;;;;;;;4.93;100.00;99409.94;742502;1155;113952;-78
2022/01/27 14:13:58;;;;;;;33.25;14.45;;;;;;;4.92;100.00;99395.28;741275;1155;115528;-77
2022/01/27 14:29:03;;;;;;;19.50;9.68;;;;;;;5.01;100.00;99386.77;740197;1153;114552;-76
2022/01/27 14:44:06;;;;;;;17.75;10.45;;;;;;;4.95;100.00;99388.08;740404;1155;114005;-78
2022/01/27 14:59:09;;;;;;;26.43;11.30;;;;;;;4.99;100.00;99384.28;740713;1155;114980;-77
2022/01/27 15:29:35;;;;;;;24.43;12.80;;;;;;;4.98;100.00;99345.42;740818;1153;114616;-74
2022/01/27 15:44:38;;;;;;;52.40;16.83;;;;;;;4.95;100.00;99356.08;740697;1153;114072;-75
2022/01/27 15:59:45;;;;;;;47.03;22.65;;;;;;;4.95;100.00;99330.08;740579;1153;114978;-78
2022/01/27 16:14:51;;;;;;;24.53;12.33;;;;;;;5.06;100.00;99300.63;743206;1153;114974;-80
2022/01/27 16:29:54;;;;;;;80.87;66.93;;;;;;;5.15;100.00;99266.08;742944;1153;115113;-80
2022/01/27 16:44:57;;;;;;;27.40;15.48;;;;;;;5.27;100.00;99262.45;743347;1155;114094;-80
2022/01/27 16:59:59;;;;;;;24.90;14.00;;;;;;;5.41;100.00;99256.13;743534;1153;114829;-79
2022/01/27 17:15:04;;;;;;;25.25;12.70;;;;;;;5.52;100.00;99239.63;743533;1155;115728;-78
2022/01/27 17:30:08;;;;;;;37.15;16.28;;;;;;;5.57;100.00;99221.02;742104;1154;114657;-78
2022/01/27 17:45:11;;;;;;;50.30;20.95;;;;;;;5.67;100.00;99229.70;740940;1153;114110;-80
2022/01/27 18:00:14;;;;;;;37.90;18.85;;;;;;;5.80;100.00;99221.68;743363;1153;114480;-81
2022/01/27 18:15:20;;;;;;;143.00;39.10;;;;;;;5.80;100.00;99195.66;743323;1153;114336;-82
2022/01/27 18:30:23;;;;;;;41.58;15.05;;;;;;;5.83;100.00;99174.56;743590;1154;114894;-80
2022/01/27 18:45:26;;;;;;;39.80;15.55;;;;;;;5.82;100.00;99171.14;743651;1153;114155;-79
2022/01/27 19:00:29;;;;;;;27.03;13.58;;;;;;;5.96;100.00;99141.30;744249;1153;114719;-80
2022/01/27 19:15:37;;;;;;;23.28;12.05;;;;;;;6.01;100.00;99129.72;744562;1153;114853;-80
2022/01/27 19:30:40;;;;;;;93.90;50.18;;;;;;;6.07;100.00;99122.20;743089;1153;115548;-78
2022/01/27 19:45:43;;;;;;;26.40;13.97;;;;;;;6.06;100.00;99089.30;743392;1153;114169;-85
2022/01/27 20:00:45;;;;;;;21.45;11.05;;;;;;;6.14;100.00;99079.02;743758;1153;114078;-84
2022/01/27 20:15:58;;;;;;;18.35;8.88;;;;;;;6.21;100.00;99058.45;743614;1153;115040;-84
2022/01/27 20:31:01;;;;;;;21.55;9.08;;;;;;;6.18;100.00;99057.91;744238;1155;113987;-83
2022/01/27 20:46:11;;;;;;;22.00;9.35;;;;;;;6.12;100.00;99047.10;742893;1153;113832;-83
2022/01/27 21:01:13;;;;;;;29.45;10.50;;;;;;;5.87;100.00;99027.58;742875;1154;114043;-82
2022/01/27 21:16:17;;;;;;;18.55;7.10;;;;;;;5.86;100.00;98996.48;742546;1153;114126;-82
2022/01/27 21:31:24;;;;;;;16.40;6.05;;;;;;;5.67;100.00;98974.69;742426;1153;113974;-81
2022/01/27 21:46:27;;;;;;;23.50;6.73;;;;;;;5.54;100.00;98969.73;742695;1153;114825;-82
2022/01/27 22:01:49;;;;;;;17.58;5.80;;;;;;;5.39;100.00;98990.13;741465;1155;114745;-74
2022/01/27 22:16:52;;;;;;;16.25;6.18;;;;;;;5.48;100.00;98983.30;740372;1153;114967;-74
2022/01/27 22:31:55;;;;;;;12.35;4.33;;;;;;;5.64;100.00;98972.38;740357;1153;114584;-73
2022/01/27 22:46:57;;;;;;;17.18;4.90;;;;;;;5.63;100.00;98942.91;740267;1153;114444;-74
2022/01/27 23:02:00;;;;;;;11.63;3.85;;;;;;;5.65;100.00;98933.20;740235;1153;113973;-74
2022/01/27 23:32:06;;;;;;;18.48;6.25;;;;;;;5.64;100.00;98878.70;740234;1155;115162;-74
